Time;durP1;ratioP1;P1;durP2;ratioP2;P2;SDS_P1;SDS_P2;PMS_P1;PMS_P2;Temp;Humidity;BMP_temperature;BMP_pressure;BME280_temperature;BME280_humidity;BME280_pressure;Samples;Min_cycle;Max_cycle;Signal;HPM_P1;HPM_P2
2022/12/31 00:00:22;;;;;;;4.51;3.84;;;;;;;8.07;74.39;101433.26;472359;112;922416;-78
2022/12/31 00:01:26;;;;;;;4.65;3.74;;;;;;;8.09;74.48;101435.80;472295;112;923025;-79
2022/12/31 00:02:29;;;;;;;6.86;3.98;;;;;;;8.07;74.48;101426.98;466909;112;923031;-77
2022/12/31 00:03:33;;;;;;;4.22;3.84;;;;;;;8.07;74.41;101422.39;463955;114;922954;-79
2022/12/31 00:04:37;;;;;;;4.81;4.27;;;;;;;8.07;74.38;101421.55;463822;114;922509;-77
2022/12/31 00:05:40;;;;;;;3.94;3.59;;;;;;;8.06;74.37;101423.41;464017;114;922485;-78
2022/12/31 00:06:43;;;;;;;4.49;4.08;;;;;;;8.05;74.36;101410.03;464011;114;922485;-79
2022/12/31 00:07:46;;;;;;;5.15;3.89;;;;;;;8.05;74.39;101423.61;464147;112;922707;-79
2022/12/31 00:08:51;;;;;;;4.97;4.41;;;;;;;8.04;74.51;101414.62;464023;114;922492;-78
2022/12/31 00:09:54;;;;;;;7.19;4.18;;;;;;;8.04;74.42;101420.05;463840;114;922979;-77
2022/12/31 00:10:57;;;;;;;5.56;4.15;;;;;;;8.03;74.47;101414.78;463927;114;930488;-78
2022/12/31 00:12:00;;;;;;;4.26;3.83;;;;;;;8.02;74.47;101416.66;464723;112;922520;-77
2022/12/31 00:13:03;;;;;;;4.79;4.37;;;;;;;8.01;74.36;101422.25;472305;112;923321;-79
2022/12/31 00:14:06;;;;;;;4.73;3.74;;;;;;;8.00;74.47;101428.70;472319;112;922523;-78
2022/12/31 00:15:10;;;;;;;4.54;3.87;;;;;;;8.01;74.56;101430.40;472198;112;922513;-77
2022/12/31 00:16:16;;;;;;;4.29;3.98;;;;;;;8.00;74.54;101434.13;472244;112;930495;-79
2022/12/31 00:17:19;;;;;;;4.89;4.06;;;;;;;8.00;74.58;101434.13;468716;112;922843;-77
2022/12/31 00:18:21;;;;;;;4.42;4.04;;;;;;;8.00;74.56;101431.42;466533;113;922483;-80
2022/12/31 00:19:25;;;;;;;5.24;4.31;;;;;;;8.00;74.67;101423.27;466479;113;922850;-78
2022/12/31 00:20:28;;;;;;;4.28;3.72;;;;;;;8.01;74.52;101422.25;466436;113;922554;-78
2022/12/31 00:21:33;;;;;;;4.42;4.04;;;;;;;7.99;74.50;101418.89;466487;113;922865;-79
2022/12/31 00:22:36;;;;;;;4.67;4.26;;;;;;;7.99;74.56;101418.89;464744;112;922498;-79
2022/12/31 00:23:39;;;;;;;4.56;4.16;;;;;;;7.98;74.71;101428.05;464060;114;922629;-78
2022/12/31 00:24:42;;;;;;;4.58;4.17;;;;;;;7.99;74.60;101430.60;464022;114;922627;-79
2022/12/31 00:25:46;;;;;;;4.81;4.41;;;;;;;7.98;74.63;101428.91;464040;114;922568;-78
2022/12/31 00:26:49;;;;;;;4.58;4.17;;;;;;;7.98;74.59;101431.62;464176;112;922424;-79
2022/12/31 00:27:53;;;;;;;4.36;3.96;;;;;;;7.99;74.75;101436.03;463492;114;922958;-79
2022/12/31 00:28:57;;;;;;;4.56;3.88;;;;;;;8.00;74.65;101439.56;463968;114;922404;-78
2022/12/31 00:30:01;;;;;;;5.49;4.04;;;;;;;8.01;74.76;101439.39;461608;115;922580;-78
2022/12/31 00:31:09;;;;;;;4.48;4.05;;;;;;;8.01;74.75;101435.83;463779;114;922606;-77
2022/12/31 00:32:19;;;;;;;4.68;4.10;;;;;;;8.12;74.76;101430.00;473501;110;947108;-79
2022/12/31 00:33:22;;;;;;;4.76;3.73;;;;;;;8.01;74.71;101441.27;457656;116;922474;-79
2022/12/31 00:34:25;;;;;;;4.42;4.04;;;;;;;8.01;74.67;101443.98;457633;116;922486;-79
2022/12/31 00:35:28;;;;;;;4.96;4.56;;;;;;;8.01;74.74;101436.68;457665;116;922955;-78
2022/12/31 00:36:36;;;;;;;4.39;4.02;;;;;;;8.02;74.66;101432.09;461599;114;922522;-78
2022/12/31 00:37:39;;;;;;;4.68;4.28;;;;;;;8.03;74.63;101442.80;464832;112;922796;-78
2022/12/31 00:38:44;;;;;;;4.78;4.18;;;;;;;8.02;74.70;101430.23;464919;114;922505;-79
2022/12/31 00:39:48;;;;;;;4.57;4.06;;;;;;;8.02;74.69;101441.09;464677;114;922905;-78
2022/12/31 00:40:51;;;;;;;4.99;4.08;;;;;;;8.02;74.56;101426.66;464886;114;922543;-78
2022/12/31 00:41:54;;;;;;;4.31;3.98;;;;;;;8.02;74.64;101429.38;464785;113;923069;-78
2022/12/31 00:42:57;;;;;;;4.83;4.17;;;;;;;8.00;74.50;101426.84;464920;114;922603;-79
2022/12/31 00:44:00;;;;;;;4.51;3.82;;;;;;;8.00;74.50;101425.98;464899;114;922702;-79
2022/12/31 00:45:04;;;;;;;4.98;4.28;;;;;;;7.99;74.50;101417.02;464844;114;922604;-78
2022/12/31 00:46:08;;;;;;;4.36;4.05;;;;;;;7.96;74.37;101415.49;464725;114;930454;-79
2022/12/31 00:47:11;;;;;;;5.05;3.81;;;;;;;7.98;74.36;101414.48;464764;112;922712;-78
2022/12/31 00:48:15;;;;;;;4.05;3.72;;;;;;;7.96;74.34;101417.36;464966;114;922510;-79
2022/12/31 00:49:18;;;;;;;4.37;4.01;;;;;;;7.94;74.30;101420.24;464922;114;922425;-78
2022/12/31 00:50:21;;;;;;;4.67;4.14;;;;;;;7.93;74.38;101413.15;464901;114;922770;-78
2022/12/31 00:51:26;;;;;;;5.04;4.62;;;;;;;7.93;74.42;101410.43;464900;114;922804;-79
2022/12/31 00:52:29;;;;;;;4.58;3.86;;;;;;;7.93;74.38;101405.00;464907;113;922518;-78
2022/12/31 00:53:32;;;;;;;4.45;4.09;;;;;;;7.92;74.37;101408.73;464818;114;922395;-79
2022/12/31 00:54:36;;;;;;;4.79;3.73;;;;;;;7.91;74.37;101403.47;464843;114;922536;-80
2022/12/31 00:55:39;;;;;;;4.96;4.05;;;;;;;7.90;74.22;101405.34;470218;112;922520;-78
2022/12/31 00:56:42;;;;;;;4.32;3.95;;;;;;;7.88;74.26;101404.66;473204;112;922400;-81
2022/12/31 00:57:45;;;;;;;5.12;4.07;;;;;;;7.85;74.16;101407.74;466122;112;922469;-79
2022/12/31 00:58:49;;;;;;;4.50;3.81;;;;;;;7.82;74.18;101405.39;464930;114;922481;-78
2022/12/31 00:59:53;;;;;;;4.36;3.98;;;;;;;7.79;74.27;101400.30;464857;114;922835;-78
2022/12/31 01:00:56;;;;;;;4.41;3.90;;;;;;;7.78;74.16;101397.75;464854;114;922630;-77
2022/12/31 01:01:59;;;;;;;4.57;3.63;;;;;;;7.75;74.24;101401.69;465008;112;922695;-79
2022/12/31 01:03:03;;;;;;;4.65;4.21;;;;;;;7.72;74.27;101393.88;464793;114;930476;-78
2022/12/31 01:04:10;;;;;;;5.52;4.91;;;;;;;7.72;74.40;101393.06;464819;114;922937;-77
2022/12/31 01:05:13;;;;;;;4.24;3.94;;;;;;;7.68;74.44;101395.26;464831;114;922940;-78
2022/12/31 01:06:17;;;;;;;4.74;4.34;;;;;;;7.66;74.38;101408.18;464999;114;922510;-77
2022/12/31 01:07:20;;;;;;;4.27;3.95;;;;;;;7.63;74.46;101397.66;464817;112;922795;-78
2022/12/31 01:08:23;;;;;;;5.44;4.37;;;;;;;7.62;74.48;101395.11;464903;114;922456;-79
2022/12/31 01:09:26;;;;;;;4.96;3.90;;;;;;;7.60;74.48;101392.59;464940;114;922325;-79
2022/12/31 01:11:51;;;;;;;4.69;4.21;;;;;;;7.58;74.56;101397.34;464685;112;922841;-79
2022/12/31 01:12:54;;;;;;;4.44;4.03;;;;;;;7.54;74.73;101396.86;465623;112;922434;-78
2022/12/31 01:14:12;;;;;;;4.92;4.15;;;;;;;7.52;74.67;101401.60;465869;114;922109;-79
2022/12/31 01:15:15;;;;;;;4.41;3.97;;;;;;;7.50;74.72;101402.78;465897;114;922484;-79
2022/12/31 01:16:22;;;;;;;4.64;4.24;;;;;;;7.47;74.79;101409.42;465872;113;922388;-78
2022/12/31 01:17:25;;;;;;;5.88;4.67;;;;;;;7.45;74.87;101405.17;466016;111;922573;-78
2022/12/31 01:18:28;;;;;;;5.28;4.82;;;;;;;7.45;74.96;101394.33;465816;114;922419;-79
2022/12/31 01:19:31;;;;;;;5.49;4.54;;;;;;;7.43;74.96;101390.95;464880;114;922736;-78
2022/12/31 01:20:39;;;;;;;5.15;4.49;;;;;;;7.42;74.97;101391.97;464871;114;923328;-78
2022/12/31 01:21:44;;;;;;;5.88;5.38;;;;;;;7.41;75.03;101387.56;464660;114;923117;-78
2022/12/31 01:22:47;;;;;;;5.24;4.80;;;;;;;7.40;75.17;101377.72;465146;112;922917;-78
2022/12/31 01:23:50;;;;;;;5.60;5.04;;;;;;;7.38;75.18;101383.35;464936;114;922463;-78
2022/12/31 01:24:54;;;;;;;5.95;5.37;;;;;;;7.38;75.14;101368.94;464920;114;922915;-79
2022/12/31 01:26:02;;;;;;;5.16;4.74;;;;;;;7.37;75.12;101375.38;464828;114;922864;-79
2022/12/31 01:27:05;;;;;;;5.48;5.03;;;;;;;7.35;75.15;101377.41;465208;112;922816;-79
2022/12/31 01:28:08;;;;;;;5.28;4.83;;;;;;;7.33;75.20;101376.75;464939;114;922524;-78
2022/12/31 01:29:13;;;;;;;5.54;5.08;;;;;;;7.30;75.24;101369.80;464819;114;922987;-78
2022/12/31 01:30:16;;;;;;;5.02;4.58;;;;;;;7.28;75.38;101377.25;464671;114;930497;-79
2022/12/31 01:31:21;;;;;;;5.68;5.16;;;;;;;7.27;75.34;101380.16;464852;114;922477;-79
2022/12/31 01:32:25;;;;;;;5.08;4.57;;;;;;;7.25;75.38;101374.90;458449;113;922547;-78
2022/12/31 01:33:28;;;;;;;5.11;4.64;;;;;;;7.24;75.53;101385.91;454921;116;923018;-78
2022/12/31 01:34:31;;;;;;;6.24;4.89;;;;;;;7.21;75.55;101378.98;454876;116;922350;-78
2022/12/31 01:35:35;;;;;;;5.37;4.93;;;;;;;7.20;75.58;101379.16;454881;116;923231;-78
2022/12/31 01:36:39;;;;;;;5.25;4.57;;;;;;;7.19;75.55;101380.16;454776;116;922483;-79
2022/12/31 01:37:42;;;;;;;5.35;4.82;;;;;;;7.16;75.60;101389.52;454975;114;930450;-78
2022/12/31 01:38:45;;;;;;;4.77;4.13;;;;;;;7.15;75.66;101387.81;454947;116;922544;-79
2022/12/31 01:39:48;;;;;;;5.09;4.54;;;;;;;7.13;75.87;101397.98;454925;116;923526;-78
2022/12/31 01:40:52;;;;;;;4.65;4.24;;;;;;;7.12;75.81;101394.41;454815;116;922269;-77
2022/12/31 01:41:55;;;;;;;5.19;4.66;;;;;;;7.11;75.94;101397.32;455166;114;922536;-78
2022/12/31 01:42:58;;;;;;;4.83;4.36;;;;;;;7.10;76.03;101396.47;454852;116;922986;-78
2022/12/31 01:44:13;;;;;;;4.89;4.41;;;;;;;7.09;76.02;101408.33;454827;116;922490;-78
2022/12/31 01:45:16;;;;;;;4.91;4.42;;;;;;;7.10;76.17;101401.05;454634;116;922518;-78
2022/12/31 01:46:29;;;;;;;4.42;4.09;;;;;;;7.10;76.38;101395.63;454794;116;922484;-78
2022/12/31 01:47:36;;;;;;;4.92;4.14;;;;;;;7.10;76.39;101396.47;452615;114;922758;-78
2022/12/31 01:48:39;;;;;;;4.70;4.29;;;;;;;7.12;76.43;101390.85;462597;114;922429;-78
2022/12/31 01:49:55;;;;;;;5.57;4.87;;;;;;;7.12;76.46;101388.99;462727;114;922590;-78
2022/12/31 01:50:58;;;;;;;5.02;4.53;;;;;;;7.12;76.46;101388.99;462560;114;922718;-78
2022/12/31 01:52:20;;;;;;;4.51;4.14;;;;;;;7.10;76.58;101404.61;461220;114;922858;-79
2022/12/31 01:53:23;;;;;;;5.09;4.59;;;;;;;7.11;76.45;101413.59;454614;116;930403;-79
2022/12/31 01:54:30;;;;;;;5.49;4.79;;;;;;;7.09;76.54;101418.33;454771;116;922354;-79
2022/12/31 01:55:37;;;;;;;5.65;5.16;;;;;;;7.09;76.75;101421.04;458892;114;930590;-78
2022/12/31 01:56:44;;;;;;;4.87;4.29;;;;;;;7.09;76.73;101430.03;462305;114;922507;-78
2022/12/31 01:57:51;;;;;;;4.88;4.48;;;;;;;7.10;76.89;101426.30;454893;114;922581;-77
2022/12/31 01:58:56;;;;;;;5.07;4.53;;;;;;;7.12;76.82;101428.81;454596;116;922565;-78
2022/12/31 02:00:00;;;;;;;6.36;5.06;;;;;;;7.15;76.86;101424.93;454610;116;922902;-78
2022/12/31 02:01:06;;;;;;;5.48;4.98;;;;;;;7.15;76.92;101423.07;454652;116;922568;-79
2022/12/31 02:02:09;;;;;;;5.62;5.10;;;;;;;7.16;76.92;101415.78;454616;114;930423;-78
2022/12/31 02:03:13;;;;;;;4.71;4.30;;;;;;;7.17;76.83;101421.02;454710;116;923435;-79
2022/12/31 02:04:16;;;;;;;5.48;4.98;;;;;;;7.18;76.83;101419.15;454771;116;922684;-78
2022/12/31 02:05:32;;;;;;;4.62;4.31;;;;;;;7.19;76.93;101418.13;454741;116;922933;-79
2022/12/31 02:06:39;;;;;;;5.08;4.63;;;;;;;7.20;76.84;101417.97;454533;116;922555;-79
2022/12/31 02:07:43;;;;;;;5.94;5.37;;;;;;;7.21;76.94;101418.82;460537;114;923036;-79
2022/12/31 02:08:47;;;;;;;5.04;4.56;;;;;;;7.21;76.84;101426.96;462706;114;922576;-79
2022/12/31 02:09:51;;;;;;;5.31;4.81;;;;;;;7.20;76.84;101417.13;462701;114;922473;-78
2022/12/31 02:10:54;;;;;;;5.27;4.87;;;;;;;7.19;76.81;101424.41;462704;114;922744;-79
2022/12/31 02:11:57;;;;;;;5.33;4.90;;;;;;;7.19;76.84;101424.41;461882;114;922612;-78
2022/12/31 02:13:01;;;;;;;5.12;4.71;;;;;;;7.18;76.94;101419.15;454811;116;922545;-79
2022/12/31 02:14:10;;;;;;;4.94;4.56;;;;;;;7.17;76.83;101429.15;454727;116;923390;-79
2022/12/31 02:15:14;;;;;;;5.74;5.18;;;;;;;7.14;76.86;101429.51;454590;116;922726;-78
2022/12/31 02:16:24;;;;;;;5.28;4.65;;;;;;;7.13;77.00;101425.94;454589;116;922526;-78
2022/12/31 02:17:43;;;;;;;5.39;4.93;;;;;;;7.12;77.04;101432.38;454885;114;928776;-79
2022/12/31 02:19:09;;;;;;;5.01;4.44;;;;;;;7.11;77.10;101432.58;454270;116;922428;-79
2022/12/31 02:20:25;;;;;;;5.59;5.08;;;;;;;7.10;77.17;101420.88;454636;116;922472;-78
2022/12/31 02:21:41;;;;;;;5.33;4.83;;;;;;;7.09;77.15;101424.60;454039;116;923003;-78
2022/12/31 02:22:57;;;;;;;5.72;5.17;;;;;;;7.07;77.18;101432.05;458229;114;922942;-78
2022/12/31 02:24:24;;;;;;;6.84;5.15;;;;;;;7.05;77.22;101436.82;435344;122;923744;-78
2022/12/31 02:25:51;;;;;;;5.13;4.55;;;;;;;7.04;77.31;101428.84;458438;115;923460;-79
2022/12/31 02:27:09;;;;;;;5.82;5.30;;;;;;;7.00;77.32;101431.03;458151;115;922896;-79
2022/12/31 02:28:36;;;;;;;5.73;5.06;;;;;;;6.96;77.48;101432.40;454670;116;922599;-78
2022/12/31 02:30:12;;;;;;;5.13;4.73;;;;;;;6.92;77.46;101427.50;454597;116;922634;-78
2022/12/31 02:31:34;;;;;;;5.62;5.19;;;;;;;6.87;77.63;101440.72;454590;116;922878;-77
2022/12/31 02:32:59;;;;;;;5.23;4.79;;;;;;;6.83;77.76;101445.64;459547;114;922776;-78
2022/12/31 02:34:20;;;;;;;5.19;4.69;;;;;;;6.80;77.88;101434.27;464554;114;922424;-79
2022/12/31 02:35:27;;;;;;;5.56;5.12;;;;;;;6.76;78.02;101447.33;464619;114;922803;-80
2022/12/31 02:36:41;;;;;;;6.71;5.92;;;;;;;6.83;78.27;101442.93;471661;110;946760;-78
2022/12/31 02:37:47;;;;;;;6.40;5.62;;;;;;;6.71;78.20;101441.56;457370;114;922925;-76
2022/12/31 02:38:51;;;;;;;5.63;5.09;;;;;;;6.70;78.27;101446.14;457454;116;922643;-78
2022/12/31 02:39:55;;;;;;;5.84;5.39;;;;;;;6.70;78.32;101448.84;457549;116;922496;-79
2022/12/31 02:40:59;;;;;;;6.46;5.86;;;;;;;6.68;78.33;101453.58;457519;114;922940;-78
2022/12/31 02:42:03;;;;;;;6.94;6.29;;;;;;;6.69;78.36;101449.86;457185;116;922537;-79
2022/12/31 02:43:06;;;;;;;5.91;5.41;;;;;;;6.69;78.49;101451.72;456322;116;922494;-78
2022/12/31 02:44:28;;;;;;;6.05;5.53;;;;;;;6.68;78.40;101452.72;456262;116;922609;-77
2022/12/31 02:45:35;;;;;;;6.62;5.86;;;;;;;6.68;78.55;101458.14;456156;116;924088;-78
2022/12/31 02:46:41;;;;;;;6.82;6.33;;;;;;;6.65;78.50;101453.08;456118;116;922499;-77
2022/12/31 02:47:51;;;;;;;6.81;6.26;;;;;;;6.63;78.62;101449.67;456046;114;922965;-77
2022/12/31 02:49:13;;;;;;;6.63;6.12;;;;;;;6.62;78.60;101456.95;454842;116;922930;-78
2022/12/31 02:50:35;;;;;;;6.34;5.82;;;;;;;6.60;78.69;101450.87;456144;116;922473;-79
2022/12/31 02:51:56;;;;;;;7.13;6.51;;;;;;;6.58;78.76;101452.89;455423;114;922536;-77
2022/12/31 02:53:12;;;;;;;6.72;6.12;;;;;;;6.55;78.67;101450.53;449520;117;922596;-79
2022/12/31 02:54:21;;;;;;;6.81;6.29;;;;;;;6.53;78.82;101452.55;449605;118;922574;-78
2022/12/31 02:55:46;;;;;;;6.86;6.01;;;;;;;6.50;78.83;101455.61;456159;113;922609;-78
2022/12/31 02:57:12;;;;;;;6.63;6.06;;;;;;;6.49;78.90;101448.49;466445;113;922483;-79
2022/12/31 03:02:12;;;;;;;6.16;5.61;;;;;;;6.47;79.03;101455.92;449001;117;922444;-78
2022/12/31 03:02:22;;;;;;;6.50;5.94;;;;;;;6.46;79.26;101451.52;453102;116;922698;-77
2022/12/31 03:03:26;;;;;;;6.98;6.42;;;;;;;6.47;79.38;101458.64;457451;116;922776;-79
2022/12/31 03:04:32;;;;;;;6.05;5.57;;;;;;;6.46;79.26;101454.22;457487;116;922567;-79
2022/12/31 03:05:42;;;;;;;6.63;6.06;;;;;;;6.47;79.36;101452.37;457379;116;930769;-77
2022/12/31 03:06:45;;;;;;;6.96;6.38;;;;;;;6.47;79.25;101438.82;457432;114;923058;-78
2022/12/31 03:07:48;;;;;;;6.83;6.28;;;;;;;6.47;79.23;101438.82;457218;116;922494;-78
2022/12/31 03:10:10;;;;;;;6.95;6.29;;;;;;;6.50;79.37;101443.92;443210;119;922956;-79
2022/12/31 03:12:46;;;;;;;6.72;6.03;;;;;;;6.51;79.33;101451.86;484219;109;922801;-79
2022/12/31 03:13:49;;;;;;;6.74;6.24;;;;;;;6.52;79.34;101442.72;484530;109;922324;-78
2022/12/31 03:14:53;;;;;;;6.46;5.96;;;;;;;6.53;79.25;101452.55;484722;109;922452;-78
2022/12/31 03:15:56;;;;;;;7.65;6.04;;;;;;;6.53;79.30;101447.13;484621;109;923398;-79
2022/12/31 03:16:59;;;;;;;6.34;5.86;;;;;;;6.54;79.32;101437.14;484642;109;923391;-78
2022/12/31 03:18:06;;;;;;;6.39;5.87;;;;;;;6.55;79.23;101449.69;484745;109;922487;-78
2022/12/31 03:23:28;;;;;;;7.88;7.16;;;;;;;6.58;79.18;101458.31;482430;110;930429;-80
2022/12/31 03:25:55;;;;;;;6.70;6.17;;;;;;;6.56;79.19;101463.04;482895;110;922377;-78
2022/12/31 03:26:58;;;;;;;6.51;5.93;;;;;;;6.55;79.18;101450.53;482948;109;922598;-78
2022/12/31 03:28:03;;;;;;;6.72;6.19;;;;;;;6.56;79.25;101448.67;485163;109;922332;-78
2022/12/31 03:29:06;;;;;;;6.59;6.08;;;;;;;6.57;79.18;101443.06;485003;109;922859;-80
2022/12/31 03:30:11;;;;;;;7.19;6.54;;;;;;;6.60;79.16;101441.89;485085;109;922377;-77
2022/12/31 03:31:15;;;;;;;6.71;6.19;;;;;;;6.62;79.21;101439.84;484426;107;923070;-79
2022/12/31 03:32:18;;;;;;;6.49;5.92;;;;;;;6.64;79.10;101438.67;483623;109;930648;-79
2022/12/31 03:33:22;;;;;;;6.84;6.34;;;;;;;6.66;79.09;101442.08;482736;110;922428;-79
2022/12/31 03:34:26;;;;;;;6.35;5.79;;;;;;;6.70;79.20;101435.30;482483;110;923496;-80
2022/12/31 03:35:30;;;;;;;6.81;6.25;;;;;;;6.74;79.07;101443.08;482625;110;922564;-79
2022/12/31 03:36:33;;;;;;;6.43;5.81;;;;;;;6.77;79.00;101442.75;482435;108;922465;-78
2022/12/31 03:37:38;;;;;;;6.39;5.82;;;;;;;6.80;78.98;101443.25;484046;109;922982;-79
2022/12/31 03:38:42;;;;;;;7.48;6.76;;;;;;;6.81;78.88;101439.53;484577;109;922409;-78
2022/12/31 03:39:45;;;;;;;6.47;5.87;;;;;;;6.84;78.70;101444.59;484613;109;922710;-79
2022/12/31 03:40:51;;;;;;;9.35;6.40;;;;;;;6.85;78.71;101442.73;484659;108;930628;-78
2022/12/31 03:41:54;;;;;;;6.57;6.04;;;;;;;6.86;78.51;101442.58;484221;107;922444;-78
2022/12/31 03:42:57;;;;;;;6.48;5.98;;;;;;;6.87;78.50;101440.72;476004;111;922461;-78
2022/12/31 03:44:00;;;;;;;6.56;5.99;;;;;;;6.88;78.33;101440.55;475957;111;922895;-78
2022/12/31 03:45:04;;;;;;;6.47;5.97;;;;;;;6.90;78.27;101440.36;475997;110;923709;-79
2022/12/31 03:46:07;;;;;;;5.46;5.04;;;;;;;6.89;78.14;101435.98;475884;109;923000;-79
2022/12/31 03:47:11;;;;;;;6.62;6.03;;;;;;;6.88;78.07;101436.99;478119;109;922504;-77
2022/12/31 03:48:14;;;;;;;6.94;5.82;;;;;;;6.87;77.88;101438.86;484762;109;922571;-76
2022/12/31 03:49:17;;;;;;;6.18;5.59;;;;;;;6.87;77.98;101429.87;484719;109;922453;-78
2022/12/31 03:50:20;;;;;;;5.65;5.17;;;;;;;6.87;77.92;101435.30;484718;109;922946;-79
2022/12/31 03:51:23;;;;;;;6.71;5.84;;;;;;;6.86;77.75;101437.16;484653;107;922535;-77
2022/12/31 03:52:26;;;;;;;5.97;5.32;;;;;;;6.86;77.72;101434.44;483673;109;922490;-78
2022/12/31 03:53:29;;;;;;;6.29;5.79;;;;;;;6.87;77.82;101424.45;473414;111;922642;-77
2022/12/31 03:54:32;;;;;;;5.84;5.36;;;;;;;6.86;77.68;101422.75;473778;110;923077;-79
2022/12/31 03:55:35;;;;;;;5.89;5.39;;;;;;;6.87;77.67;101419.03;489904;107;922606;-78
2022/12/31 03:56:39;;;;;;;5.69;5.19;;;;;;;6.87;77.78;101416.31;495758;103;921944;-77
2022/12/31 03:57:42;;;;;;;5.29;4.85;;;;;;;6.88;77.62;101416.16;485638;106;921880;-77
2022/12/31 03:58:45;;;;;;;5.31;4.78;;;;;;;6.88;77.58;101418.02;484077;109;921995;-78
2022/12/31 03:59:48;;;;;;;5.06;4.61;;;;;;;6.89;77.51;101417.83;483968;109;922688;-79
2022/12/31 04:00:51;;;;;;;5.51;5.09;;;;;;;6.89;77.51;101433.27;484045;109;921984;-77
2022/12/31 04:01:54;;;;;;;5.77;5.26;;;;;;;6.88;77.48;101432.42;484071;108;922011;-77
2022/12/31 04:02:57;;;;;;;5.74;5.23;;;;;;;6.87;77.41;101433.44;477370;108;922008;-77
2022/12/31 04:04:01;;;;;;;5.65;5.24;;;;;;;6.86;77.21;101436.30;477291;108;922006;-77
2022/12/31 04:05:05;;;;;;;6.03;5.44;;;;;;;6.81;77.28;101441.39;477225;108;922478;-78
2022/12/31 04:06:09;;;;;;;5.39;4.88;;;;;;;6.81;77.28;101441.39;477072;108;922566;-78
2022/12/31 04:07:12;;;;;;;6.17;5.64;;;;;;;6.78;77.21;101436.32;480167;109;922014;-78
2022/12/31 04:08:15;;;;;;;6.31;5.76;;;;;;;6.76;77.27;101435.63;485994;106;922144;-77
2022/12/31 04:09:18;;;;;;;6.21;5.69;;;;;;;6.74;77.17;101435.80;486107;106;922193;-77
2022/12/31 04:10:22;;;;;;;5.60;5.16;;;;;;;6.73;77.19;101434.09;485958;106;922056;-78
2022/12/31 04:11:25;;;;;;;5.17;4.76;;;;;;;6.74;77.27;101432.23;485910;106;930010;-78
2022/12/31 04:12:28;;;;;;;6.33;5.74;;;;;;;6.73;77.39;101428.67;485847;109;922168;-78
2022/12/31 04:13:31;;;;;;;5.72;5.21;;;;;;;6.74;77.40;101427.66;486057;106;922028;-78
2022/12/31 04:14:34;;;;;;;5.97;5.47;;;;;;;6.76;77.29;101431.06;486064;109;921961;-77
2022/12/31 04:15:37;;;;;;;6.14;5.44;;;;;;;6.77;77.24;101421.07;486037;108;921946;-78
2022/12/31 04:16:41;;;;;;;6.93;6.40;;;;;;;6.78;77.23;101422.77;486012;106;922049;-78
2022/12/31 04:17:44;;;;;;;7.39;6.69;;;;;;;6.78;77.33;101417.34;484173;109;922730;-79
2022/12/31 04:18:47;;;;;;;6.29;5.83;;;;;;;6.78;77.29;101414.64;483769;110;922623;-79
2022/12/31 04:19:51;;;;;;;7.49;5.99;;;;;;;6.78;77.25;101412.75;483736;110;921972;-79
2022/12/31 04:20:54;;;;;;;6.41;5.92;;;;;;;6.78;77.22;101412.75;483930;110;922063;-78
2022/12/31 04:21:57;;;;;;;6.40;5.75;;;;;;;6.77;77.13;101413.79;483839;109;922448;-77
2022/12/31 04:23:00;;;;;;;6.00;5.51;;;;;;;6.76;77.13;101412.09;485677;109;922075;-78
2022/12/31 04:24:04;;;;;;;6.39;5.91;;;;;;;6.74;77.09;101405.98;485721;109;922101;-77
2022/12/31 04:25:10;;;;;;;6.13;5.63;;;;;;;6.72;76.99;101404.48;485641;109;922318;-78
2022/12/31 04:26:15;;;;;;;6.13;5.61;;;;;;;6.68;76.98;101410.22;485434;107;930051;-78
2022/12/31 04:27:18;;;;;;;6.10;5.56;;;;;;;6.66;76.93;101397.87;484556;109;922888;-78
2022/12/31 04:28:21;;;;;;;5.36;4.96;;;;;;;6.63;76.87;101401.75;484850;108;922398;-77
2022/12/31 04:29:24;;;;;;;5.94;5.53;;;;;;;6.60;76.98;101406.67;484772;109;922416;-77
2022/12/31 04:30:28;;;;;;;5.92;5.40;;;;;;;6.57;76.99;101412.41;484707;108;922611;-78
2022/12/31 04:31:31;;;;;;;5.39;4.96;;;;;;;6.54;76.88;101427.16;484683;107;922385;-78
2022/12/31 04:32:34;;;;;;;6.49;5.92;;;;;;;6.52;76.95;101433.75;483224;108;922465;-78
2022/12/31 04:33:37;;;;;;;5.83;5.41;;;;;;;6.49;76.86;101453.91;482724;110;923010;-77
2022/12/31 04:34:41;;;;;;;6.94;6.24;;;;;;;6.46;76.97;101456.94;482704;110;922443;-78
2022/12/31 04:35:44;;;;;;;6.31;5.80;;;;;;;6.42;76.95;101457.44;482667;110;923318;-77
2022/12/31 04:36:47;;;;;;;7.04;6.51;;;;;;;6.40;77.12;101473.00;482670;108;922452;-79
2022/12/31 04:37:50;;;;;;;6.17;5.77;;;;;;;6.39;77.13;101493.00;484504;109;922396;-77
2022/12/31 04:38:54;;;;;;;6.70;6.12;;;;;;;6.37;77.28;101506.70;484723;108;922877;-78
2022/12/31 04:39:57;;;;;;;7.02;6.41;;;;;;;6.35;77.32;101495.17;484615;108;922814;-78
2022/12/31 04:41:18;;;;;;;6.84;6.24;;;;;;;6.35;77.32;101495.17;483841;107;922807;-78
2022/12/31 04:42:21;;;;;;;7.07;6.46;;;;;;;6.38;77.43;101502.98;483526;109;922498;-77
2022/12/31 04:43:25;;;;;;;7.36;6.67;;;;;;;6.37;77.45;101517.53;482489;110;922505;-78
2022/12/31 04:44:28;;;;;;;7.01;6.51;;;;;;;6.39;77.42;101517.38;482587;110;922451;-78
2022/12/31 04:45:31;;;;;;;7.76;7.01;;;;;;;6.40;77.47;101516.34;482699;110;922868;-78
2022/12/31 04:46:34;;;;;;;6.99;6.38;;;;;;;6.41;77.46;101512.63;482590;108;922904;-79
2022/12/31 04:47:37;;;;;;;7.69;7.12;;;;;;;6.42;77.50;101512.47;483631;109;922392;-78
2022/12/31 04:48:40;;;;;;;7.76;6.85;;;;;;;6.43;77.49;101510.61;484729;109;922545;-78
2022/12/31 04:49:43;;;;;;;7.44;6.84;;;;;;;6.42;77.37;101514.33;484745;109;922444;-78
2022/12/31 04:50:46;;;;;;;7.06;6.33;;;;;;;6.41;77.26;101512.63;484629;108;922392;-79
2022/12/31 04:51:49;;;;;;;6.85;6.23;;;;;;;6.40;77.25;101505.50;484529;107;922422;-78
2022/12/31 04:52:53;;;;;;;7.58;6.83;;;;;;;6.37;77.32;101506.70;475817;111;922892;-78
2022/12/31 04:53:56;;;;;;;6.93;6.36;;;;;;;6.35;77.30;101510.57;475784;111;922483;-79
2022/12/31 04:55:00;;;;;;;7.46;6.86;;;;;;;6.32;77.20;101505.50;475752;107;922487;-78
2022/12/31 04:56:04;;;;;;;7.69;6.94;;;;;;;6.29;77.31;101501.24;484521;107;922511;-79
2022/12/31 04:57:07;;;;;;;7.54;6.86;;;;;;;6.26;77.27;101502.44;484009;109;922589;-78
2022/12/31 04:58:10;;;;;;;7.13;6.52;;;;;;;6.24;77.25;101512.58;482546;110;922768;-77
2022/12/31 04:59:13;;;;;;;7.36;6.59;;;;;;;6.22;77.29;101505.64;482545;110;922586;-78
2022/12/31 05:00:16;;;;;;;6.30;5.82;;;;;;;6.20;77.30;101515.78;482427;109;922577;-77
2022/12/31 05:01:20;;;;;;;7.51;6.86;;;;;;;6.18;77.32;101510.52;482514;110;922550;-78
2022/12/31 05:02:23;;;;;;;7.32;6.81;;;;;;;6.15;77.42;101502.73;483144;109;923662;-79
2022/12/31 05:03:27;;;;;;;8.14;7.45;;;;;;;6.13;77.32;101509.31;484478;109;922511;-77
2022/12/31 05:04:30;;;;;;;7.92;7.20;;;;;;;6.11;77.34;101501.37;484570;108;922494;-78
2022/12/31 05:05:37;;;;;;;7.76;7.06;;;;;;;6.08;77.34;101496.27;484586;109;922437;-76
2022/12/31 05:06:40;;;;;;;7.64;7.04;;;;;;;6.06;77.42;101509.14;484298;107;922858;-77
2022/12/31 05:07:43;;;;;;;7.28;6.61;;;;;;;6.04;77.29;101513.86;482756;109;922251;-77
2022/12/31 05:08:47;;;;;;;7.50;6.87;;;;;;;6.01;77.42;101521.47;482477;110;922488;-76
2022/12/31 05:09:50;;;;;;;7.88;7.28;;;;;;;5.98;77.36;101525.33;482386;110;930464;-76
2022/12/31 05:10:54;;;;;;;7.59;6.92;;;;;;;5.96;77.46;101534.61;482445;109;922723;-77
2022/12/31 05:11:58;;;;;;;7.12;6.58;;;;;;;5.94;77.40;101532.09;480828;109;922535;-78
2022/12/31 05:13:01;;;;;;;8.54;7.76;;;;;;;5.91;77.38;101521.56;484602;108;922434;-79
2022/12/31 05:14:04;;;;;;;7.36;6.76;;;;;;;5.89;77.50;101528.17;484606;109;922484;-77
2022/12/31 05:15:08;;;;;;;8.64;7.87;;;;;;;5.85;77.55;101536.56;484551;109;922783;-80
2022/12/31 05:16:11;;;;;;;8.67;7.71;;;;;;;5.84;77.53;101542.16;484407;107;922825;-77
2022/12/31 05:17:14;;;;;;;8.07;7.29;;;;;;;5.83;77.57;101545.87;484332;108;922941;-78